createdAt,value
2019-01-10T00:01:07.067Z,3.07
2019-01-10T00:03:34.943Z,3.13
2019-01-10T00:06:03.101Z,3.12
2019-01-10T00:08:31.732Z,3.18
2019-01-10T00:11:01.632Z,3.18
2019-01-10T00:13:30.263Z,3.21
2019-01-10T00:15:58.115Z,3.27
2019-01-10T00:18:28.537Z,3.28
2019-01-10T00:20:59.654Z,3.26
2019-01-10T00:23:28.976Z,3.23
2019-01-10T00:25:56.755Z,3.19
2019-01-10T00:28:24.431Z,3.21
2019-01-10T00:30:54.910Z,3.21
2019-01-10T00:33:23.830Z,3.17
2019-01-10T00:35:51.576Z,3.17
2019-01-10T00:38:19.315Z,3.21
2019-01-10T00:40:47.222Z,3.28
2019-01-10T00:43:15.565Z,3.28
2019-01-10T00:45:43.252Z,3.39
2019-01-10T00:48:12.229Z,3.37
2019-01-10T00:50:40.198Z,3.42
2019-01-10T00:53:08.165Z,3.47
2019-01-10T00:55:36.211Z,3.49
2019-01-10T00:58:04.367Z,3.53
2019-01-10T01:00:33.250Z,3.54
2019-01-10T01:03:02.544Z,3.62
2019-01-10T01:05:34.669Z,3.54
2019-01-10T01:08:02.749Z,3.56
2019-01-10T01:10:31.869Z,3.57
2019-01-10T01:12:59.576Z,3.62
2019-01-10T01:15:28.020Z,3.71
2019-01-10T01:17:57.438Z,3.73
2019-01-10T01:20:25.495Z,3.75
2019-01-10T01:22:53.653Z,3.85
2019-01-10T01:25:21.735Z,3.88
2019-01-10T01:27:50.498Z,3.84
2019-01-10T01:30:21.073Z,3.78
2019-01-10T01:32:50.546Z,3.81
2019-01-10T01:35:18.397Z,3.79
2019-01-10T01:37:46.570Z,3.79
2019-01-10T01:40:16.600Z,3.73
2019-01-10T01:42:44.552Z,3.68
2019-01-10T01:45:13.328Z,3.69
2019-01-10T01:47:41.198Z,3.69
2019-01-10T01:50:16.227Z,3.69
2019-01-10T01:52:43.982Z,3.68
2019-01-10T01:55:12.813Z,3.68
2019-01-10T01:57:40.718Z,3.68
2019-01-10T02:00:16.522Z,3.74
2019-01-10T02:02:44.350Z,3.75
2019-01-10T02:05:12.757Z,3.76
2019-01-10T02:07:40.536Z,3.82
2019-01-10T02:10:16.306Z,3.82
2019-01-10T02:12:44.577Z,3.82
2019-01-10T02:15:14.342Z,3.83
2019-01-10T02:17:48.752Z,3.81
2019-01-10T02:20:12.418Z,3.80
2019-01-10T02:22:40.341Z,3.73
2019-01-10T02:25:08.684Z,3.74
2019-01-10T02:27:36.672Z,3.76
2019-01-10T02:30:06.291Z,3.81
2019-01-10T02:32:33.904Z,3.77
2019-01-10T02:35:02.078Z,3.74
2019-01-10T02:37:29.705Z,3.17
2019-01-10T02:39:57.277Z,3.72
2019-01-10T02:42:26.091Z,3.75
2019-01-10T02:44:53.769Z,3.78
2019-01-10T02:47:21.410Z,3.80
2019-01-10T02:49:50.410Z,3.73
2019-01-10T02:52:18.020Z,3.65
2019-01-10T02:54:45.698Z,3.63
2019-01-10T02:57:13.770Z,3.63
2019-01-10T02:59:41.457Z,3.62
2019-01-10T03:02:09.352Z,3.62
2019-01-10T03:04:37.418Z,3.61
2019-01-10T03:07:05.248Z,3.59
2019-01-10T03:09:34.231Z,3.60
2019-01-10T03:12:02.181Z,3.59
2019-01-10T03:14:29.974Z,3.61
2019-01-10T03:17:00.857Z,3.61
2019-01-10T03:19:31.836Z,3.57
2019-01-10T03:22:00.893Z,3.62
2019-01-10T03:24:29.681Z,3.66
2019-01-10T03:26:58.217Z,3.72
2019-01-10T03:29:29.669Z,3.78
2019-01-10T03:31:57.774Z,3.82
2019-01-10T03:34:25.427Z,3.86
2019-01-10T03:36:53.131Z,3.82
2019-01-10T03:39:20.738Z,3.85
2019-01-10T03:41:48.352Z,3.84
2019-01-10T03:44:16.058Z,3.87
2019-01-10T03:46:43.981Z,3.87
2019-01-10T03:49:11.693Z,3.92
2019-01-10T03:51:41.122Z,3.85
2019-01-10T03:54:08.884Z,3.57
2019-01-10T03:56:36.709Z,3.78
2019-01-10T03:59:05.740Z,3.80
2019-01-10T04:01:34.806Z,3.88
2019-01-10T04:04:02.747Z,3.90
2019-01-10T04:06:30.910Z,3.89
2019-01-10T04:09:00.000Z,3.86
2019-01-10T04:11:27.633Z,3.81
2019-01-10T04:13:57.501Z,3.80
2019-01-10T04:16:26.991Z,3.85
2019-01-10T04:18:54.680Z,3.77
2019-01-10T04:21:22.760Z,3.72
2019-01-10T04:23:53.804Z,3.73
2019-01-10T04:26:21.800Z,3.78
2019-01-10T04:28:49.726Z,3.78
2019-01-10T04:31:17.482Z,3.73
2019-01-10T04:33:45.219Z,3.72
2019-01-10T04:36:16.221Z,3.64
2019-01-10T04:38:44.291Z,3.63
2019-01-10T04:41:12.372Z,3.06
2019-01-10T04:43:40.399Z,3.59
2019-01-10T04:46:08.234Z,3.61
2019-01-10T04:48:37.061Z,3.60
2019-01-10T04:51:07.359Z,3.54
2019-01-10T04:53:34.946Z,3.55
2019-01-10T04:56:04.045Z,3.50
2019-01-10T04:58:34.897Z,3.52
2019-01-10T05:01:03.703Z,3.50
2019-01-10T05:03:31.466Z,3.37
2019-01-10T05:06:00.060Z,3.36
2019-01-10T05:08:28.061Z,3.28
2019-01-10T05:11:26.141Z,3.19
2019-01-10T05:13:54.739Z,3.18
2019-01-10T05:16:25.441Z,3.13
2019-01-10T05:18:54.663Z,3.18
2019-01-10T05:21:25.844Z,3.15
2019-01-10T05:23:56.818Z,3.16
2019-01-10T05:26:24.688Z,3.18
2019-01-10T05:28:52.875Z,3.16
2019-01-10T05:31:24.610Z,3.19
2019-01-10T05:33:54.176Z,3.13
2019-01-10T05:36:22.361Z,3.17
2019-01-10T05:38:50.092Z,3.17
2019-01-10T05:41:18.037Z,3.19
2019-01-10T05:43:46.295Z,3.16
2019-01-10T05:46:17.342Z,3.16
2019-01-10T05:48:47.017Z,3.19
2019-01-10T05:51:18.473Z,3.19
2019-01-10T05:53:48.588Z,3.21
2019-01-10T05:56:18.235Z,3.24
2019-01-10T05:58:46.028Z,3.21
2019-01-10T06:01:13.909Z,3.12
2019-01-10T06:03:41.828Z,3.08
2019-01-10T06:06:11.808Z,3.12
2019-01-10T06:08:39.541Z,3.15
2019-01-10T06:11:11.445Z,3.15
2019-01-10T06:13:39.662Z,3.17
2019-01-10T06:16:09.055Z,2.68
2019-01-10T06:18:36.903Z,3.25
2019-01-10T06:21:05.210Z,3.30
2019-01-10T06:23:33.288Z,3.23
2019-01-10T06:26:02.641Z,3.07
2019-01-10T06:28:31.710Z,2.38
2019-01-10T06:31:02.676Z,2.93
2019-01-10T06:33:31.905Z,2.90
2019-01-10T06:36:00.108Z,2.89
2019-01-10T06:38:28.043Z,2.88
2019-01-10T06:40:55.744Z,2.93
2019-01-10T06:43:23.882Z,2.91
2019-01-10T06:45:51.657Z,2.85
2019-01-10T06:48:19.878Z,2.84
2019-01-10T06:50:48.230Z,2.82
2019-01-10T06:53:18.787Z,2.86
2019-01-10T06:55:46.895Z,2.87
2019-01-10T06:58:18.939Z,2.88
2019-01-10T07:00:47.040Z,2.83
2019-01-10T07:03:15.835Z,2.85
2019-01-10T07:05:43.939Z,2.82
2019-01-10T07:08:14.812Z,2.87
2019-01-10T07:10:42.887Z,2.83
2019-01-10T07:13:11.718Z,2.79
2019-01-10T07:15:39.900Z,2.82
2019-01-10T07:18:08.526Z,2.86
2019-01-10T07:20:40.123Z,2.94
2019-01-10T07:23:09.442Z,2.99
2019-01-10T07:25:38.295Z,3.08
2019-01-10T07:28:26.132Z,3.11
2019-01-10T07:30:56.435Z,3.06
2019-01-10T07:33:25.883Z,3.05
2019-01-10T07:35:57.953Z,3.05
2019-01-10T07:38:30.351Z,3.02
2019-01-10T07:40:58.086Z,3.03
2019-01-10T07:43:27.522Z,2.95
2019-01-10T07:46:04.305Z,2.94
2019-01-10T07:48:33.534Z,2.99
2019-01-10T07:51:04.365Z,2.97
2019-01-10T07:53:33.094Z,2.95
2019-01-10T07:56:02.406Z,2.98
2019-01-10T07:58:30.246Z,2.90
2019-01-10T08:00:58.435Z,2.96
2019-01-10T08:03:28.194Z,2.84
2019-01-10T08:05:57.851Z,2.83
2019-01-10T08:08:28.961Z,2.91
2019-01-10T08:11:03.508Z,2.90
2019-01-10T08:13:31.723Z,2.85
2019-01-10T08:15:59.671Z,2.85
2019-01-10T08:18:28.239Z,2.89
2019-01-10T08:20:56.243Z,2.92
2019-01-10T08:23:42.939Z,2.41
2019-01-10T08:26:14.593Z,2.98
2019-01-10T08:28:42.736Z,3.00
2019-01-10T08:31:13.513Z,3.04
2019-01-10T08:33:41.884Z,3.11
2019-01-10T08:36:09.906Z,3.07
2019-01-10T08:38:37.770Z,3.13
2019-01-10T08:41:08.887Z,3.22
2019-01-10T08:43:36.937Z,3.27
2019-01-10T08:46:05.202Z,3.35
2019-01-10T08:48:33.949Z,3.29
2019-01-10T08:51:02.898Z,3.22
2019-01-10T08:53:30.917Z,3.25
2019-01-10T08:55:59.371Z,3.28
2019-01-10T08:58:27.051Z,3.32
2019-01-10T09:00:58.333Z,3.29
2019-01-10T09:03:27.895Z,2.72
2019-01-10T09:06:07.855Z,3.33
2019-01-10T09:08:29.130Z,3.35
2019-01-10T09:11:01.715Z,3.36
2019-01-10T09:13:29.569Z,3.38
2019-01-10T09:15:57.489Z,3.39
2019-01-10T09:18:25.615Z,3.52
2019-01-10T09:21:04.004Z,3.59
2019-01-10T09:23:28.441Z,3.68
2019-01-10T09:25:56.229Z,3.70
2019-01-10T09:28:26.930Z,3.76
2019-01-10T09:30:58.120Z,3.75
2019-01-10T09:33:26.037Z,3.78
2019-01-10T09:35:58.186Z,3.83
2019-01-10T09:38:26.756Z,3.89
2019-01-10T09:40:55.931Z,3.92
2019-01-10T09:43:28.806Z,3.94
2019-01-10T09:46:00.283Z,3.97
2019-01-10T09:48:28.069Z,4.01
2019-01-10T09:51:03.696Z,4.06
2019-01-10T09:53:33.021Z,4.09
2019-01-10T09:56:05.784Z,4.00
2019-01-10T09:58:33.546Z,3.97
2019-01-10T10:01:03.053Z,3.92
2019-01-10T10:03:30.762Z,3.89
2019-01-10T10:06:07.359Z,3.92
2019-01-10T10:08:31.693Z,3.95
2019-01-10T10:11:07.679Z,3.95
2019-01-10T10:13:37.354Z,3.89
2019-01-10T10:16:09.416Z,3.86
2019-01-10T10:18:37.249Z,3.44
2019-01-10T10:21:09.396Z,3.96
2019-01-10T10:23:38.490Z,3.99
2019-01-10T10:26:11.687Z,4.03
2019-01-10T10:28:40.031Z,4.02
2019-01-10T10:31:08.527Z,4.03
2019-01-10T10:33:36.792Z,4.02
2019-01-10T10:36:06.576Z,4.01
2019-01-10T10:38:34.829Z,4.00
2019-01-10T10:41:05.487Z,4.01
2019-01-10T10:43:33.285Z,4.08
2019-01-10T10:46:01.833Z,4.07
2019-01-10T10:48:31.630Z,4.10
2019-01-10T10:51:04.116Z,4.18
2019-01-10T10:53:35.139Z,4.24
2019-01-10T10:56:03.688Z,4.30
2019-01-10T10:58:31.628Z,4.28
2019-01-10T11:00:59.391Z,4.17
2019-01-10T11:03:29.313Z,4.21
2019-01-10T11:05:58.363Z,4.18
2019-01-10T11:08:26.258Z,4.24
2019-01-10T11:10:55.452Z,4.23
2019-01-10T11:13:23.438Z,4.24
2019-01-10T11:15:51.257Z,4.27
2019-01-10T11:18:26.687Z,4.27
2019-01-10T11:20:55.977Z,4.27
2019-01-10T11:23:26.453Z,4.35
2019-01-10T11:25:58.650Z,4.45
2019-01-10T11:28:31.604Z,4.40
2019-01-10T11:31:00.357Z,4.39
2019-01-10T11:33:31.655Z,4.42
2019-01-10T11:36:00.579Z,4.37
2019-01-10T11:38:31.218Z,4.26
2019-01-10T11:41:02.425Z,4.25
2019-01-10T11:43:34.615Z,4.24
2019-01-10T11:46:03.750Z,4.21
2019-01-10T11:48:33.218Z,4.22
2019-01-10T11:51:05.184Z,4.27
2019-01-10T11:53:35.600Z,4.30
2019-01-10T11:56:07.168Z,4.39
2019-01-10T11:58:36.750Z,4.43
2019-01-10T12:01:05.762Z,4.40
2019-01-10T12:03:33.727Z,4.47
2019-01-10T12:06:01.723Z,4.54
2019-01-10T12:08:30.019Z,4.64
2019-01-10T12:10:58.905Z,4.71
2019-01-10T12:13:29.675Z,4.70
2019-01-10T12:15:58.828Z,4.76
2019-01-10T12:18:26.570Z,4.75
2019-01-10T12:20:54.369Z,4.73
2019-01-10T12:23:25.872Z,4.76
2019-01-10T12:25:53.824Z,4.72
2019-01-10T12:28:26.661Z,4.65
2019-01-10T12:30:56.529Z,4.67
2019-01-10T12:33:25.779Z,4.67
2019-01-10T12:35:54.932Z,4.59
2019-01-10T12:38:23.259Z,4.43
2019-01-10T12:40:53.745Z,4.41
2019-01-10T12:43:24.502Z,4.33
2019-01-10T12:45:52.625Z,4.19
2019-01-10T12:48:20.588Z,4.14
2019-01-10T12:50:48.483Z,3.60
2019-01-10T12:53:16.626Z,4.14
2019-01-10T12:55:44.442Z,4.17
2019-01-10T12:58:12.383Z,4.20
2019-01-10T13:00:40.948Z,4.23
2019-01-10T13:03:08.958Z,4.19
2019-01-10T13:05:37.034Z,4.22
2019-01-10T13:08:05.487Z,4.31
2019-01-10T13:10:33.616Z,3.85
2019-01-10T13:13:01.678Z,4.41
2019-01-10T13:15:32.843Z,4.48
2019-01-10T13:18:00.710Z,4.53
2019-01-10T13:20:28.547Z,4.48
2019-01-10T13:22:56.719Z,4.48
2019-01-10T13:25:24.516Z,4.53
2019-01-10T13:27:53.695Z,4.57
2019-01-10T13:30:26.464Z,4.62
2019-01-10T13:32:56.421Z,4.63
2019-01-10T13:35:26.438Z,4.59
2019-01-10T13:37:56.083Z,4.57
2019-01-10T13:40:27.406Z,4.56
2019-01-10T13:42:56.915Z,4.53
2019-01-10T13:45:25.265Z,4.53
2019-01-10T13:47:56.911Z,4.51
2019-01-10T13:50:32.256Z,4.45
2019-01-10T13:53:08.983Z,4.42
2019-01-10T13:55:38.521Z,4.43
2019-01-10T13:58:08.459Z,4.41
2019-01-10T14:00:37.450Z,4.41
2019-01-10T14:03:13.299Z,4.42
2019-01-10T14:05:44.949Z,4.39
2019-01-10T14:08:15.435Z,4.40
2019-01-10T14:10:43.112Z,4.43
2019-01-10T14:13:11.235Z,4.41
2019-01-10T14:15:39.268Z,4.36
2019-01-10T14:18:09.392Z,4.41
2019-01-10T14:20:38.218Z,4.41
2019-01-10T14:23:10.882Z,4.39
2019-01-10T14:25:39.131Z,4.34
2019-01-10T14:28:09.210Z,4.31
2019-01-10T14:30:39.953Z,4.31
2019-01-10T14:33:13.689Z,4.27
2019-01-10T14:35:41.963Z,3.27
2019-01-10T14:38:10.424Z,4.09
2019-01-10T14:40:38.747Z,4.06
2019-01-10T14:43:09.352Z,4.02
2019-01-10T14:45:40.255Z,4.01
2019-01-10T14:48:08.373Z,3.97
2019-01-10T14:50:38.795Z,3.94
2019-01-10T14:53:08.200Z,3.94
2019-01-10T14:55:38.552Z,3.85
2019-01-10T14:58:07.789Z,3.85
2019-01-10T15:00:36.603Z,3.85
2019-01-10T15:03:10.767Z,3.81
2019-01-10T15:05:39.056Z,3.83
2019-01-10T15:08:07.176Z,3.81
2019-01-10T15:10:37.844Z,3.78
2019-01-10T15:13:06.999Z,3.74
2019-01-10T15:15:35.480Z,3.71
2019-01-10T15:18:06.186Z,3.67
2019-01-10T15:20:35.062Z,3.66
2019-01-10T15:23:03.625Z,3.60
2019-01-10T15:25:34.778Z,3.03
2019-01-10T15:28:05.526Z,3.50
2019-01-10T15:30:35.567Z,3.48
2019-01-10T15:33:08.683Z,3.42
2019-01-10T15:35:37.061Z,3.36
2019-01-10T15:38:05.805Z,3.35
2019-01-10T15:40:35.398Z,3.33
2019-01-10T15:43:05.958Z,3.31
2019-01-10T15:45:34.175Z,3.27
2019-01-10T15:48:05.479Z,3.23
2019-01-10T15:50:35.893Z,3.24
2019-01-10T15:53:05.796Z,3.25
2019-01-10T15:55:36.277Z,3.24
2019-01-10T15:58:05.041Z,3.21
2019-01-10T16:00:33.776Z,3.21
2019-01-10T16:03:06.860Z,3.23
2019-01-10T16:05:35.330Z,3.23
2019-01-10T16:08:03.651Z,3.22
2019-01-10T16:10:32.256Z,3.23
2019-01-10T16:13:00.177Z,3.19
2019-01-10T16:15:30.643Z,3.18
2019-01-10T16:17:59.352Z,3.19
2019-01-10T16:20:27.725Z,3.22
2019-01-10T16:22:56.948Z,3.17
2019-01-10T16:25:30.426Z,3.18
2019-01-10T16:27:58.575Z,3.17
2019-01-10T16:30:28.507Z,3.16
2019-01-10T16:32:56.965Z,3.12
2019-01-10T16:35:24.790Z,3.12
2019-01-10T16:37:53.503Z,3.15
2019-01-10T16:40:22.311Z,3.16
2019-01-10T16:42:50.582Z,3.19
2019-01-10T16:45:20.922Z,3.19
2019-01-10T16:47:49.122Z,3.20
2019-01-10T16:50:17.542Z,3.23
2019-01-10T16:52:45.484Z,3.19
2019-01-10T16:55:14.545Z,3.21
2019-01-10T16:57:42.724Z,3.24
2019-01-10T17:00:25.911Z,3.23
2019-01-10T17:02:54.132Z,3.22
2019-01-10T17:05:22.198Z,3.25
2019-01-10T17:08:06.535Z,3.26
2019-01-10T17:10:35.508Z,3.27
2019-01-10T17:13:04.391Z,2.70
2019-01-10T17:15:32.327Z,3.24
2019-01-10T17:18:00.836Z,3.28
2019-01-10T17:20:29.771Z,3.29
2019-01-10T17:22:57.906Z,3.31
2019-01-10T17:25:25.912Z,3.30
2019-01-10T17:27:53.638Z,3.33
2019-01-10T17:30:23.843Z,3.33
2019-01-10T17:32:54.210Z,3.34
2019-01-10T17:35:24.169Z,3.35
2019-01-10T17:37:53.445Z,3.32
2019-01-10T17:40:22.337Z,3.28
2019-01-10T17:42:53.374Z,3.28
2019-01-10T17:45:23.896Z,3.25
2019-01-10T17:47:52.675Z,3.27
2019-01-10T17:50:20.990Z,3.28
2019-01-10T17:52:48.848Z,3.32
2019-01-10T17:55:16.958Z,3.32
2019-01-10T17:57:44.719Z,3.25
2019-01-10T18:00:15.722Z,3.24
2019-01-10T18:02:43.982Z,3.22
2019-01-10T18:05:15.896Z,3.23
2019-01-10T18:07:43.748Z,3.25
2019-01-10T18:10:17.124Z,3.27
2019-01-10T18:12:45.424Z,3.29
2019-01-10T18:15:16.014Z,3.26
2019-01-10T18:17:50.080Z,3.24
2019-01-10T18:20:20.500Z,3.24
2019-01-10T18:22:49.680Z,3.24
2019-01-10T18:25:17.800Z,3.26
2019-01-10T18:27:46.708Z,3.26
2019-01-10T18:30:17.647Z,3.22
2019-01-10T18:32:46.476Z,3.17
2019-01-10T18:35:15.537Z,3.15
2019-01-10T18:37:43.631Z,3.11
2019-01-10T18:40:12.914Z,3.01
2019-01-10T18:42:41.550Z,3.02
2019-01-10T18:45:13.762Z,2.99
2019-01-10T18:47:42.207Z,3.02
2019-01-10T18:50:15.857Z,2.97
2019-01-10T18:52:43.944Z,2.91
2019-01-10T18:55:13.027Z,2.87
2019-01-10T18:57:40.880Z,2.88
2019-01-10T19:00:14.792Z,2.88
2019-01-10T19:02:45.492Z,2.91
2019-01-10T19:05:18.552Z,2.90
2019-01-10T19:07:46.994Z,2.86
2019-01-10T19:10:16.925Z,2.30
2019-01-10T19:12:45.512Z,2.87
2019-01-10T19:15:13.792Z,2.87
2019-01-10T19:17:42.591Z,2.80
2019-01-10T19:20:15.943Z,2.81
2019-01-10T19:22:43.836Z,2.76
2019-01-10T19:25:12.419Z,2.76
2019-01-10T19:27:41.424Z,2.65
2019-01-10T19:30:15.267Z,2.62
2019-01-10T19:32:43.534Z,2.60
2019-01-10T19:35:11.634Z,2.58
2019-01-10T19:37:40.137Z,2.60
2019-01-10T19:40:11.370Z,2.61
2019-01-10T19:42:40.011Z,2.64
2019-01-10T19:45:12.037Z,2.60
2019-01-10T19:47:40.791Z,2.57
2019-01-10T19:50:11.662Z,2.55
2019-01-10T19:52:39.685Z,2.54
2019-01-10T19:55:09.612Z,2.56
2019-01-10T19:57:40.417Z,2.56
2019-01-10T20:00:13.619Z,2.59
2019-01-10T20:02:42.791Z,2.63
2019-01-10T20:05:11.490Z,2.70
2019-01-10T20:07:39.829Z,2.71
2019-01-10T20:10:09.547Z,2.72
2019-01-10T20:12:37.224Z,2.71
2019-01-10T20:15:05.863Z,2.69
2019-01-10T20:17:35.659Z,2.68
2019-01-10T20:20:06.436Z,2.65
2019-01-10T20:22:34.678Z,2.60
2019-01-10T20:25:04.537Z,2.58
2019-01-10T20:27:32.364Z,2.61
2019-01-10T20:30:05.378Z,2.61
2019-01-10T20:32:33.056Z,2.60
2019-01-10T20:35:01.391Z,2.56
2019-01-10T20:37:29.925Z,2.53
2019-01-10T20:39:58.186Z,2.55
2019-01-10T20:42:26.074Z,2.56
2019-01-10T20:44:54.320Z,2.58
2019-01-10T20:47:26.154Z,2.56
2019-01-10T20:49:55.128Z,2.57
2019-01-10T20:52:23.593Z,2.46
2019-01-10T20:54:52.018Z,2.45
2019-01-10T20:57:23.437Z,2.37
2019-01-10T20:59:52.134Z,2.27
2019-01-10T21:02:19.897Z,2.18
2019-01-10T21:04:48.450Z,2.19
2019-01-10T21:07:17.455Z,2.18
2019-01-10T21:09:45.515Z,2.16
2019-01-10T21:12:13.754Z,2.08
2019-01-10T21:14:42.557Z,2.07
2019-01-10T21:17:10.831Z,2.05
2019-01-10T21:19:39.359Z,2.06
2019-01-10T21:22:08.050Z,1.99
2019-01-10T21:24:37.466Z,1.90
2019-01-10T21:27:05.470Z,1.88
2019-01-10T21:29:33.972Z,1.93
2019-01-10T21:32:02.613Z,1.95
2019-01-10T21:34:31.624Z,1.97
2019-01-10T21:36:59.986Z,1.86
2019-01-10T21:39:27.934Z,1.83
2019-01-10T21:41:55.863Z,1.81
2019-01-10T21:44:23.791Z,1.84
2019-01-10T21:46:51.428Z,1.83
2019-01-10T21:49:19.088Z,1.82
2019-01-10T21:51:47.196Z,1.76
2019-01-10T21:54:15.086Z,1.71
2019-01-10T21:56:44.257Z,1.75
2019-01-10T21:59:11.876Z,1.70
2019-01-10T22:01:39.661Z,1.71
2019-01-10T22:04:07.472Z,1.69
2019-01-10T22:06:35.598Z,1.69
2019-01-10T22:09:06.055Z,1.68
2019-01-10T22:11:33.887Z,1.68
2019-01-10T22:14:01.793Z,1.67
2019-01-10T22:16:29.776Z,1.69
2019-01-10T22:18:58.345Z,1.71
2019-01-10T22:21:26.592Z,1.75
2019-01-10T22:23:54.367Z,1.67
2019-01-10T22:26:22.075Z,1.65
2019-01-10T22:28:49.959Z,1.66
2019-01-10T22:31:17.882Z,1.65
2019-01-10T22:33:45.634Z,1.63
2019-01-10T22:36:13.810Z,1.70
2019-01-10T22:38:41.598Z,1.72
2019-01-10T22:41:09.547Z,1.71
2019-01-10T22:43:37.560Z,1.74
2019-01-10T22:46:05.758Z,1.81
2019-01-10T22:48:34.899Z,1.82
2019-01-10T22:51:03.273Z,1.78
2019-01-10T22:53:30.842Z,1.82
2019-01-10T22:55:58.956Z,1.88
2019-01-10T22:58:27.764Z,1.88
2019-01-10T23:01:22.510Z,1.90
2019-01-10T23:03:54.675Z,1.92
2019-01-10T23:06:23.220Z,1.91
2019-01-10T23:08:51.299Z,1.86
2019-01-10T23:11:24.941Z,1.89
2019-01-10T23:13:57.913Z,1.37
2019-01-10T23:16:26.047Z,1.83
2019-01-10T23:18:55.673Z,1.84
2019-01-10T23:21:23.601Z,1.71
2019-01-10T23:23:59.755Z,1.68
2019-01-10T23:26:27.502Z,1.58
2019-01-10T23:28:55.545Z,1.61
2019-01-10T23:31:23.790Z,1.67
2019-01-10T23:33:51.689Z,1.73
2019-01-10T23:36:20.151Z,1.72
2019-01-10T23:39:14.470Z,1.74
2019-01-10T23:41:42.390Z,1.60
2019-01-10T23:44:10.884Z,1.60
2019-01-10T23:46:38.815Z,1.62
2019-01-10T23:49:08.391Z,1.60
2019-01-10T23:51:36.681Z,1.59
2019-01-10T23:54:07.025Z,1.54
2019-01-10T23:56:35.239Z,1.55
2019-01-10T23:59:04.384Z,1.57
